createdAt,value
2022-11-30T00:01:35.021Z,9.50
2022-11-30T00:04:02.690Z,9.40
2022-11-30T00:06:29.916Z,9.50
2022-11-30T00:09:00.583Z,9.60
2022-11-30T00:11:28.830Z,9.60
2022-11-30T00:13:56.630Z,9.60
2022-11-30T00:16:23.968Z,9.70
2022-11-30T00:18:51.387Z,9.70
2022-11-30T00:21:19.195Z,9.70
2022-11-30T00:23:48.253Z,9.70
2022-11-30T00:26:18.166Z,9.80
2022-11-30T00:28:46.135Z,9.70
2022-11-30T00:31:15.779Z,9.60
2022-11-30T00:33:46.213Z,9.60
2022-11-30T00:36:21.960Z,9.50
2022-11-30T00:38:52.729Z,9.40
2022-11-30T00:41:20.497Z,9.40
2022-11-30T00:43:48.009Z,9.30
2022-11-30T00:46:17.982Z,9.30
2022-11-30T00:48:45.404Z,9.30
2022-11-30T00:51:16.012Z,9.30
2022-11-30T00:53:43.273Z,9.20
2022-11-30T00:56:11.063Z,9.20
2022-11-30T00:58:40.698Z,9.30
2022-11-30T01:01:08.550Z,9.20
2022-11-30T01:03:36.782Z,9.20
2022-11-30T01:06:05.964Z,9.20
2022-11-30T01:08:36.118Z,9.30
2022-11-30T01:11:14.811Z,9.40
2022-11-30T01:13:42.023Z,9.40
2022-11-30T01:16:15.829Z,9.40
2022-11-30T01:18:46.530Z,9.40
2022-11-30T01:21:19.997Z,9.40
2022-11-30T01:23:47.654Z,9.40
2022-11-30T01:26:16.064Z,9.50
2022-11-30T01:28:49.324Z,9.40
2022-11-30T01:31:16.880Z,9.50
2022-11-30T01:33:48.033Z,9.50
2022-11-30T01:36:23.701Z,9.60
2022-11-30T01:38:54.847Z,9.60
2022-11-30T01:41:28.813Z,9.70
2022-11-30T01:44:20.248Z,9.70
2022-11-30T01:47:06.458Z,9.70
2022-11-30T01:49:41.651Z,9.70
2022-11-30T01:52:24.744Z,9.70
2022-11-30T01:55:06.745Z,9.80
2022-11-30T01:57:51.466Z,9.70
2022-11-30T02:00:22.031Z,9.60
2022-11-30T02:02:55.229Z,9.60
2022-11-30T02:05:26.094Z,9.70
2022-11-30T02:07:56.199Z,9.70
2022-11-30T02:10:28.147Z,9.70
2022-11-30T02:13:07.529Z,9.60
2022-11-30T02:16:02.478Z,9.60
2022-11-30T02:18:49.334Z,9.60
2022-11-30T02:21:24.679Z,9.50
2022-11-30T02:24:25.331Z,9.60
2022-11-30T02:26:58.761Z,9.50
2022-11-30T02:29:41.110Z,9.60
2022-11-30T02:32:27.428Z,9.50
2022-11-30T02:34:57.493Z,9.60
2022-11-30T02:37:30.872Z,9.60
2022-11-30T02:39:58.420Z,9.60
2022-11-30T02:42:25.613Z,9.70
2022-11-30T02:44:56.503Z,9.70
2022-11-30T02:47:56.435Z,9.60
2022-11-30T02:50:33.339Z,9.60
2022-11-30T02:53:03.186Z,9.60
2022-11-30T02:55:33.260Z,9.60
2022-11-30T02:58:00.444Z,9.50
2022-11-30T03:00:29.912Z,9.40
2022-11-30T03:02:57.192Z,9.40
2022-11-30T03:05:24.692Z,9.50
2022-11-30T03:07:51.969Z,9.40
2022-11-30T03:10:24.359Z,9.40
2022-11-30T03:12:51.713Z,9.20
2022-11-30T03:15:19.006Z,9.20
2022-11-30T03:17:49.325Z,9.20
2022-11-30T03:20:21.393Z,9.30
2022-11-30T03:22:48.606Z,9.30
2022-11-30T03:25:18.044Z,9.30
2022-11-30T03:27:47.400Z,9.30
2022-11-30T03:30:17.274Z,9.40
2022-11-30T03:32:44.573Z,9.30
2022-11-30T03:35:11.847Z,9.30
2022-11-30T03:37:39.051Z,9.30
2022-11-30T03:40:07.044Z,9.30
2022-11-30T03:42:34.294Z,9.20
2022-11-30T03:45:01.981Z,9.20
2022-11-30T03:47:29.231Z,9.10
2022-11-30T03:49:56.466Z,9.00
2022-11-30T03:52:25.960Z,9.00
2022-11-30T03:54:53.185Z,9.10
2022-11-30T03:57:20.397Z,9.00
2022-11-30T03:59:50.135Z,8.90
2022-11-30T04:02:17.779Z,8.90
2022-11-30T04:04:45.320Z,8.90
2022-11-30T04:07:13.311Z,9.00
2022-11-30T04:09:42.877Z,9.00
2022-11-30T04:12:10.044Z,9.00
2022-11-30T04:14:37.712Z,9.00
2022-11-30T04:17:05.452Z,9.00
2022-11-30T04:19:35.053Z,9.20
2022-11-30T04:22:07.438Z,9.20
2022-11-30T04:24:34.654Z,9.20
2022-11-30T04:27:02.313Z,9.20
2022-11-30T04:29:29.981Z,9.20
2022-11-30T04:31:57.603Z,9.20
2022-11-30T04:34:28.328Z,9.30
2022-11-30T04:37:00.083Z,9.30
2022-11-30T04:39:28.198Z,9.20
2022-11-30T04:41:56.570Z,9.20
2022-11-30T04:44:23.841Z,9.20
2022-11-30T04:46:51.061Z,9.10
2022-11-30T04:49:18.741Z,9.10
2022-11-30T04:51:46.037Z,9.10
2022-11-30T04:54:15.528Z,9.20
2022-11-30T04:56:43.163Z,9.20
2022-11-30T04:59:10.409Z,9.30
2022-11-30T05:01:38.167Z,9.30
2022-11-30T05:04:05.878Z,9.30
2022-11-30T05:06:33.161Z,9.30
2022-11-30T05:09:02.551Z,9.30
2022-11-30T05:11:29.778Z,9.30
2022-11-30T05:13:59.331Z,9.30
2022-11-30T05:16:26.547Z,9.40
2022-11-30T05:18:56.411Z,9.50
2022-11-30T05:21:25.775Z,9.40
2022-11-30T05:23:53.397Z,9.40
2022-11-30T05:26:23.235Z,9.30
2022-11-30T05:28:50.453Z,9.20
2022-11-30T05:31:17.904Z,9.30
2022-11-30T05:33:55.536Z,9.30
2022-11-30T05:36:22.787Z,9.30
2022-11-30T05:38:50.153Z,9.30
2022-11-30T05:41:19.535Z,9.30
2022-11-30T05:43:46.725Z,9.40
2022-11-30T05:46:14.056Z,9.40
2022-11-30T05:48:43.754Z,9.20
2022-11-30T05:51:15.398Z,9.10
2022-11-30T05:53:47.091Z,9.10
2022-11-30T05:56:19.595Z,9.20
2022-11-30T05:58:47.824Z,9.10
2022-11-30T06:01:41.232Z,9.10
2022-11-30T06:04:09.141Z,9.10
2022-11-30T06:06:38.977Z,9.20
2022-11-30T06:09:06.661Z,9.20
2022-11-30T06:11:36.153Z,9.30
2022-11-30T06:14:07.114Z,9.30
2022-11-30T06:16:34.478Z,9.20
2022-11-30T06:19:01.840Z,9.30
2022-11-30T06:21:29.049Z,9.20
2022-11-30T06:23:56.920Z,9.20
2022-11-30T06:26:24.147Z,9.20
2022-11-30T06:28:51.795Z,9.20
2022-11-30T06:31:19.540Z,9.20
2022-11-30T06:33:49.296Z,9.20
2022-11-30T06:36:23.680Z,9.10
2022-11-30T06:38:51.662Z,9.10
2022-11-30T06:41:21.590Z,9.00
2022-11-30T06:43:52.398Z,9.10
2022-11-30T06:46:22.401Z,9.20
2022-11-30T06:48:52.633Z,9.10
2022-11-30T06:51:22.525Z,9.10
2022-11-30T06:53:52.092Z,9.20
2022-11-30T06:56:22.368Z,9.10
2022-11-30T06:58:54.398Z,9.10
2022-11-30T07:01:24.128Z,9.10
2022-11-30T07:03:53.921Z,9.00
2022-11-30T07:06:23.297Z,9.00
2022-11-30T07:08:50.606Z,9.00
2022-11-30T07:11:17.790Z,9.10
2022-11-30T07:13:45.775Z,9.00
2022-11-30T07:16:13.661Z,9.10
2022-11-30T07:18:43.276Z,9.10
2022-11-30T07:21:13.817Z,9.00
2022-11-30T07:23:59.628Z,9.10
2022-11-30T07:26:27.555Z,9.10
2022-11-30T07:28:57.994Z,9.20
2022-11-30T07:31:29.713Z,9.10
2022-11-30T07:34:04.048Z,9.10
2022-11-30T07:36:31.944Z,9.00
2022-11-30T07:39:02.045Z,8.90
2022-11-30T07:41:32.437Z,8.90
2022-11-30T07:43:59.652Z,9.00
2022-11-30T07:46:26.913Z,9.10
2022-11-30T07:48:54.579Z,9.00
2022-11-30T07:51:27.831Z,9.10
2022-11-30T07:54:02.615Z,9.00
2022-11-30T07:56:30.018Z,9.10
2022-11-30T07:59:01.476Z,9.20
2022-11-30T08:01:33.646Z,9.20
2022-11-30T08:04:01.928Z,9.20
2022-11-30T08:06:31.351Z,9.20
2022-11-30T08:09:00.974Z,9.20
2022-11-30T08:11:31.394Z,9.20
2022-11-30T08:14:00.857Z,9.30
2022-11-30T08:16:30.401Z,9.30
2022-11-30T08:18:58.961Z,9.10
2022-11-30T08:21:26.676Z,9.00
2022-11-30T08:23:56.589Z,9.10
2022-11-30T08:26:30.976Z,9.10
2022-11-30T08:29:00.113Z,9.10
2022-11-30T08:31:30.896Z,9.10
2022-11-30T08:34:01.069Z,9.20
2022-11-30T08:36:32.818Z,9.20
2022-11-30T08:39:02.383Z,9.20
2022-11-30T08:41:30.117Z,9.10
2022-11-30T08:43:59.709Z,9.10
2022-11-30T08:49:22.950Z,9.30
2022-11-30T08:52:16.469Z,9.40
2022-11-30T08:54:46.156Z,9.50
2022-11-30T08:57:19.262Z,9.60
2022-11-30T08:59:47.591Z,9.70
2022-11-30T09:02:20.030Z,9.80
2022-11-30T09:04:53.603Z,9.80
2022-11-30T09:07:21.290Z,9.70
2022-11-30T09:09:48.805Z,9.80
2022-11-30T09:12:16.598Z,9.90
2022-11-30T09:14:45.585Z,10.00
2022-11-30T09:17:16.494Z,10.00
2022-11-30T09:19:44.582Z,10.10
2022-11-30T09:22:14.718Z,10.10
2022-11-30T09:24:41.907Z,10.20
2022-11-30T09:27:09.333Z,10.10
2022-11-30T09:29:37.358Z,10.10
2022-11-30T09:32:07.087Z,10.30
2022-11-30T09:34:34.422Z,10.20
2022-11-30T09:37:03.785Z,10.30
2022-11-30T09:39:33.608Z,10.20
2022-11-30T09:42:41.809Z,10.20
2022-11-30T09:45:25.731Z,10.20
2022-11-30T09:48:17.130Z,10.10
2022-11-30T09:50:47.309Z,10.10
2022-11-30T09:53:29.409Z,10.20
2022-11-30T09:56:00.021Z,10.20
2022-11-30T09:58:44.942Z,10.10
2022-11-30T10:01:20.201Z,10.10
2022-11-30T10:03:50.699Z,10.00
2022-11-30T10:06:26.330Z,10.00
2022-11-30T10:09:21.559Z,10.00
2022-11-30T10:12:00.174Z,10.00
2022-11-30T10:14:49.865Z,9.80
2022-11-30T10:17:26.044Z,10.00
2022-11-30T10:20:16.373Z,10.00
2022-11-30T10:22:52.605Z,10.30
2022-11-30T10:25:27.538Z,10.50
2022-11-30T10:28:38.582Z,10.70
2022-11-30T10:30:59.261Z,10.70
2022-11-30T10:33:39.100Z,10.70
2022-11-30T10:36:27.878Z,10.50
2022-11-30T10:39:02.825Z,10.40
2022-11-30T10:41:35.306Z,10.50
2022-11-30T10:44:16.371Z,10.60
2022-11-30T10:47:03.172Z,10.70
2022-11-30T10:49:33.866Z,10.80
2022-11-30T10:52:08.879Z,10.70
2022-11-30T10:54:39.234Z,10.70
2022-11-30T10:57:10.147Z,10.70
2022-11-30T10:59:48.558Z,10.90
2022-11-30T11:02:38.142Z,10.80
2022-11-30T11:05:23.658Z,10.70
2022-11-30T11:08:07.101Z,10.60
2022-11-30T11:10:46.520Z,10.60
2022-11-30T11:13:20.933Z,10.80
2022-11-30T11:16:01.765Z,11.00
2022-11-30T11:18:33.974Z,10.90
2022-11-30T11:21:07.180Z,11.00
2022-11-30T11:23:39.708Z,11.20
2022-11-30T11:26:15.959Z,11.30
2022-11-30T11:28:50.153Z,11.30
2022-11-30T11:31:44.201Z,11.40
2022-11-30T11:34:31.769Z,11.30
2022-11-30T11:37:28.612Z,11.20
2022-11-30T11:40:20.765Z,11.10
2022-11-30T11:42:51.579Z,11.00
2022-11-30T11:45:22.608Z,11.10
2022-11-30T11:48:01.999Z,11.00
2022-11-30T11:51:05.581Z,10.60
2022-11-30T11:53:25.170Z,10.70
2022-11-30T11:56:32.721Z,10.80
2022-11-30T11:59:24.820Z,10.60
2022-11-30T12:02:01.421Z,10.40
2022-11-30T12:05:01.212Z,10.10
2022-11-30T12:07:40.556Z,10.10
2022-11-30T12:13:45.334Z,10.10
2022-11-30T12:16:14.544Z,10.20
2022-11-30T12:18:54.759Z,9.90
2022-11-30T12:21:38.726Z,10.00
2022-11-30T12:24:20.428Z,10.20
2022-11-30T12:27:01.421Z,10.30
2022-11-30T12:29:47.843Z,10.30
2022-11-30T12:33:00.384Z,10.40
2022-11-30T12:36:05.087Z,10.60
2022-11-30T12:38:50.196Z,10.70
2022-11-30T12:41:19.707Z,10.80
2022-11-30T12:43:57.075Z,10.90
2022-11-30T12:47:05.586Z,10.70
2022-11-30T12:50:01.581Z,11.00
2022-11-30T12:52:49.594Z,11.30
2022-11-30T12:55:24.958Z,11.50
2022-11-30T12:58:29.370Z,11.50
2022-11-30T13:01:13.009Z,11.50
2022-11-30T13:03:58.392Z,11.40
2022-11-30T13:06:46.743Z,11.50
2022-11-30T13:09:27.148Z,11.80
2022-11-30T13:12:30.534Z,11.80
2022-11-30T13:15:05.039Z,12.00
2022-11-30T13:17:33.183Z,12.10
2022-11-30T13:20:20.992Z,12.10
2022-11-30T13:23:05.429Z,12.30
2022-11-30T13:28:42.091Z,12.40
2022-11-30T13:31:36.311Z,12.50
2022-11-30T13:34:05.820Z,12.60
2022-11-30T13:36:40.108Z,12.70
2022-11-30T13:39:13.086Z,12.80
2022-11-30T13:41:46.651Z,12.80
2022-11-30T13:44:35.223Z,12.80
2022-11-30T13:47:17.328Z,12.80
2022-11-30T13:49:46.793Z,12.70
2022-11-30T13:52:23.809Z,12.70
2022-11-30T13:54:58.208Z,12.60
2022-11-30T13:57:30.583Z,12.50
2022-11-30T13:59:58.708Z,12.40
2022-11-30T14:02:36.452Z,12.40
2022-11-30T14:05:38.538Z,12.30
2022-11-30T14:08:05.926Z,12.30
2022-11-30T14:10:37.983Z,12.30
2022-11-30T14:13:11.720Z,12.30
2022-11-30T14:15:38.902Z,12.30
2022-11-30T14:18:12.144Z,12.30
2022-11-30T14:20:58.332Z,12.20
2022-11-30T14:23:55.304Z,12.00
2022-11-30T14:26:44.976Z,11.90
2022-11-30T14:29:32.858Z,11.70
2022-11-30T14:32:32.327Z,11.60
2022-11-30T14:35:14.299Z,11.50
2022-11-30T14:37:54.313Z,11.40
2022-11-30T14:40:23.366Z,11.40
2022-11-30T14:43:01.400Z,11.30
2022-11-30T14:45:35.357Z,11.30
2022-11-30T14:48:13.880Z,11.40
2022-11-30T14:50:48.789Z,11.40
2022-11-30T14:53:27.469Z,11.40
2022-11-30T14:56:04.582Z,11.40
2022-11-30T14:58:54.194Z,11.40
2022-11-30T15:01:30.731Z,11.40
2022-11-30T15:04:05.330Z,11.40
2022-11-30T15:06:34.512Z,11.40
2022-11-30T15:09:02.397Z,11.30
2022-11-30T15:11:32.633Z,11.20
2022-11-30T15:14:09.059Z,11.10
2022-11-30T15:16:37.065Z,10.90
2022-11-30T15:19:22.293Z,10.80
2022-11-30T15:21:50.887Z,10.60
2022-11-30T15:24:21.151Z,10.60
2022-11-30T15:26:55.485Z,10.50
2022-11-30T15:29:28.286Z,10.40
2022-11-30T15:31:58.634Z,10.30
2022-11-30T15:34:50.168Z,10.20
2022-11-30T15:37:20.235Z,10.20
2022-11-30T15:39:55.961Z,10.20
2022-11-30T15:42:43.877Z,10.10
2022-11-30T15:45:22.901Z,10.00
2022-11-30T15:47:51.847Z,10.00
2022-11-30T15:50:31.294Z,10.00
2022-11-30T15:53:01.534Z,10.00
2022-11-30T15:55:50.335Z,10.00
2022-11-30T15:58:48.267Z,9.90
2022-11-30T16:01:22.648Z,9.90
2022-11-30T16:03:56.587Z,9.90
2022-11-30T16:06:34.268Z,9.80
2022-11-30T16:09:18.687Z,9.80
2022-11-30T16:11:48.663Z,9.80
2022-11-30T16:14:19.332Z,9.80
2022-11-30T16:16:49.523Z,9.80
2022-11-30T16:19:26.672Z,9.80
2022-11-30T16:21:54.491Z,9.90
2022-11-30T16:24:24.541Z,9.90
2022-11-30T16:26:52.241Z,10.00
2022-11-30T16:29:20.879Z,10.00
2022-11-30T16:31:49.442Z,10.00
2022-11-30T16:34:17.307Z,10.10
2022-11-30T16:36:46.659Z,10.20
2022-11-30T16:39:20.064Z,10.20
2022-11-30T16:41:47.203Z,10.30
2022-11-30T16:44:15.122Z,10.40
2022-11-30T16:46:42.385Z,10.40
2022-11-30T16:49:09.767Z,10.30
2022-11-30T16:51:38.472Z,10.30
2022-11-30T16:54:05.923Z,10.40
2022-11-30T16:56:33.586Z,10.30
2022-11-30T16:59:00.954Z,10.30
2022-11-30T17:01:46.197Z,10.20
2022-11-30T17:04:21.423Z,10.10
2022-11-30T17:06:51.079Z,10.20
2022-11-30T17:09:21.922Z,10.10
2022-11-30T17:11:51.436Z,10.00
2022-11-30T17:14:20.495Z,10.00
2022-11-30T17:16:48.454Z,9.90
2022-11-30T17:19:18.270Z,9.80
2022-11-30T17:21:45.883Z,9.70
2022-11-30T17:24:13.706Z,9.60
2022-11-30T17:26:41.096Z,9.50
2022-11-30T17:29:10.541Z,9.40
2022-11-30T17:31:37.845Z,9.30
2022-11-30T17:34:06.457Z,9.10
2022-11-30T17:36:33.643Z,9.10
2022-11-30T17:39:07.932Z,9.00
2022-11-30T17:41:37.699Z,8.90
2022-11-30T17:44:04.938Z,8.80
2022-11-30T17:46:32.677Z,8.70
2022-11-30T17:49:00.464Z,8.60
2022-11-30T17:51:27.961Z,8.60
2022-11-30T17:53:55.333Z,8.40
2022-11-30T17:56:23.309Z,8.40
2022-11-30T17:58:50.991Z,8.30
2022-11-30T18:01:25.716Z,8.30
2022-11-30T18:03:56.179Z,8.20
2022-11-30T18:06:26.508Z,8.10
2022-11-30T18:08:54.000Z,8.00
2022-11-30T18:11:24.128Z,7.90
2022-11-30T18:13:53.578Z,7.90
2022-11-30T18:16:29.223Z,7.90
2022-11-30T18:18:59.430Z,7.90
2022-11-30T18:21:29.694Z,7.80
2022-11-30T18:23:58.505Z,7.80
2022-11-30T18:26:30.308Z,7.80
2022-11-30T18:29:00.124Z,7.70
2022-11-30T18:31:29.334Z,7.70
2022-11-30T18:34:01.285Z,7.70
2022-11-30T18:36:29.064Z,7.60
2022-11-30T18:39:01.283Z,7.60
2022-11-30T18:41:33.601Z,7.60
2022-11-30T18:44:00.890Z,7.60
2022-11-30T18:46:31.026Z,7.60
2022-11-30T18:48:59.539Z,7.50
2022-11-30T18:51:29.267Z,7.40
2022-11-30T18:54:05.311Z,7.40
2022-11-30T18:56:35.742Z,7.30
2022-11-30T18:59:09.000Z,7.30
2022-11-30T19:01:37.257Z,7.20
2022-11-30T19:04:07.447Z,7.20
2022-11-30T19:06:35.625Z,7.10
2022-11-30T19:09:09.066Z,7.00
2022-11-30T19:11:37.164Z,7.00
2022-11-30T19:14:04.746Z,7.00
2022-11-30T19:16:36.403Z,6.80
2022-11-30T19:19:06.468Z,6.70
2022-11-30T19:21:34.921Z,6.60
2022-11-30T19:24:02.721Z,6.60
2022-11-30T19:26:32.573Z,6.50
2022-11-30T19:29:00.314Z,6.50
2022-11-30T19:31:27.717Z,6.60
2022-11-30T19:33:56.745Z,6.70
2022-11-30T19:36:26.709Z,6.90
2022-11-30T19:38:54.811Z,6.90
2022-11-30T19:41:25.526Z,7.00
2022-11-30T19:44:04.533Z,7.10
2022-11-30T19:46:34.494Z,7.30
2022-11-30T19:49:02.790Z,7.40
2022-11-30T19:51:31.058Z,7.50
2022-11-30T19:54:02.228Z,7.60
2022-11-30T19:56:32.888Z,7.70
2022-11-30T19:59:05.053Z,7.70
2022-11-30T20:01:34.144Z,7.70
2022-11-30T20:04:01.677Z,7.80
2022-11-30T20:06:32.617Z,7.90
2022-11-30T20:09:00.247Z,7.90
2022-11-30T20:11:28.037Z,8.00
2022-11-30T20:13:55.862Z,8.10
2022-11-30T20:16:25.090Z,8.20
2022-11-30T20:18:58.133Z,8.30
2022-11-30T20:21:29.233Z,8.30
2022-11-30T20:24:00.924Z,8.40
2022-11-30T20:26:33.311Z,8.40
2022-11-30T20:29:02.469Z,8.50
2022-11-30T20:31:31.073Z,8.50
2022-11-30T20:33:59.112Z,8.60
2022-11-30T20:36:27.126Z,8.60
2022-11-30T20:38:54.510Z,8.70
2022-11-30T20:41:24.699Z,8.70
2022-11-30T20:43:53.140Z,8.60
2022-11-30T20:46:24.713Z,8.60
2022-11-30T20:48:52.277Z,8.70
2022-11-30T20:51:32.842Z,8.60
2022-11-30T20:54:03.952Z,8.80
2022-11-30T20:56:32.359Z,8.70
2022-11-30T20:59:13.735Z,8.80
2022-11-30T21:01:43.760Z,8.60
2022-11-30T21:04:11.404Z,8.70
2022-11-30T21:06:39.462Z,8.50
2022-11-30T21:09:06.733Z,8.50
2022-11-30T21:11:33.961Z,8.60
2022-11-30T21:14:04.354Z,8.50
2022-11-30T21:16:31.664Z,8.30
2022-11-30T21:19:00.234Z,8.40
2022-11-30T21:21:34.736Z,8.40
2022-11-30T21:24:08.187Z,8.50
2022-11-30T21:26:40.076Z,8.60
2022-11-30T21:29:13.992Z,8.70
2022-11-30T21:31:42.228Z,8.70
2022-11-30T21:34:09.868Z,8.60
2022-11-30T21:36:37.317Z,8.40
2022-11-30T21:39:09.164Z,8.50
2022-11-30T21:41:39.015Z,8.50
2022-11-30T21:44:11.466Z,8.40
2022-11-30T21:46:38.887Z,8.40
2022-11-30T21:49:07.541Z,8.40
2022-11-30T21:51:35.326Z,8.40
2022-11-30T21:54:07.805Z,8.40
2022-11-30T21:56:38.812Z,8.30
2022-11-30T21:59:08.656Z,8.20
2022-11-30T22:01:41.650Z,8.20
2022-11-30T22:04:11.172Z,8.10
2022-11-30T22:06:39.674Z,8.10
2022-11-30T22:09:11.274Z,8.00
2022-11-30T22:11:40.726Z,7.90
2022-11-30T22:14:12.309Z,7.90
2022-11-30T22:16:40.420Z,7.80
2022-11-30T22:19:11.145Z,7.70
2022-11-30T22:21:39.271Z,7.60
2022-11-30T22:24:10.125Z,7.50
2022-11-30T22:26:39.837Z,7.50
2022-11-30T22:29:19.246Z,7.40
2022-11-30T22:31:51.706Z,7.40
2022-11-30T22:34:20.380Z,7.50
2022-11-30T22:36:48.388Z,7.60
2022-11-30T22:39:23.114Z,7.60
2022-11-30T22:41:56.044Z,7.70
2022-11-30T22:44:25.100Z,7.70
2022-11-30T22:46:52.515Z,7.70
2022-11-30T22:49:21.646Z,7.80
2022-11-30T22:51:50.334Z,7.80
2022-11-30T22:54:18.806Z,7.90
2022-11-30T22:56:46.564Z,7.80
2022-11-30T22:59:17.695Z,7.90
2022-11-30T23:01:48.170Z,8.00
2022-11-30T23:04:20.622Z,8.00
2022-11-30T23:06:49.179Z,8.10
2022-11-30T23:09:21.950Z,8.20
2022-11-30T23:11:50.767Z,8.30
2022-11-30T23:14:18.571Z,8.30
2022-11-30T23:16:47.490Z,8.30
2022-11-30T23:19:18.218Z,8.30
2022-11-30T23:21:50.018Z,8.30
2022-11-30T23:24:22.116Z,8.30
2022-11-30T23:26:50.005Z,8.40
2022-11-30T23:29:18.296Z,8.50
2022-11-30T23:31:49.120Z,8.60
2022-11-30T23:34:19.718Z,8.70
2022-11-30T23:36:47.656Z,8.70
2022-11-30T23:39:17.343Z,8.70
2022-11-30T23:41:45.095Z,8.80
2022-11-30T23:44:12.553Z,8.90
2022-11-30T23:46:40.675Z,8.90
2022-11-30T23:49:08.607Z,8.90
2022-11-30T23:51:36.142Z,9.00
2022-11-30T23:54:03.763Z,9.00
2022-11-30T23:56:33.584Z,9.10
2022-11-30T23:59:03.193Z,9.10
